createdAt,value
2019-02-18T00:02:04.762Z,5.03
2019-02-18T00:04:34.324Z,4.23
2019-02-18T00:07:13.738Z,6.40
2019-02-18T00:09:35.218Z,5.93
2019-02-18T00:12:05.011Z,4.57
2019-02-18T00:14:34.600Z,4.93
2019-02-18T00:17:04.451Z,4.53
2019-02-18T00:19:34.000Z,5.40
2019-02-18T00:22:05.085Z,4.37
2019-02-18T00:24:34.708Z,5.67
2019-02-18T00:27:04.285Z,5.37
2019-02-18T00:29:33.871Z,4.97
2019-02-18T00:32:03.470Z,4.30
2019-02-18T00:34:38.673Z,5.83
2019-02-18T00:37:08.257Z,6.33
2019-02-18T00:39:37.995Z,6.10
2019-02-18T00:42:07.559Z,4.77
2019-02-18T00:44:37.117Z,5.10
2019-02-18T00:47:06.864Z,5.43
2019-02-18T00:49:37.933Z,5.50
2019-02-18T00:52:07.509Z,5.53
2019-02-18T00:54:37.079Z,6.03
2019-02-18T00:57:06.668Z,6.33
2019-02-18T00:59:36.251Z,5.20
2019-02-18T01:02:05.872Z,6.53
2019-02-18T01:04:35.405Z,6.13
2019-02-18T01:07:05.200Z,7.17
2019-02-18T01:09:34.766Z,5.23
2019-02-18T01:12:04.419Z,5.90
2019-02-18T01:14:33.981Z,5.33
2019-02-18T01:17:03.569Z,5.10
2019-02-18T01:19:33.150Z,5.03
2019-02-18T01:22:02.712Z,7.30
2019-02-18T01:24:32.308Z,7.13
2019-02-18T01:27:01.958Z,5.87
2019-02-18T01:29:31.549Z,4.90
2019-02-18T01:32:01.116Z,4.67
2019-02-18T01:34:30.707Z,5.60
2019-02-18T01:37:00.311Z,4.63
2019-02-18T01:39:30.037Z,6.83
2019-02-18T01:41:59.597Z,6.67
2019-02-18T01:44:29.324Z,6.37
2019-02-18T01:46:58.932Z,8.13
2019-02-18T01:49:28.496Z,5.63
2019-02-18T01:51:58.076Z,7.30
2019-02-18T01:54:27.663Z,4.67
2019-02-18T01:56:57.216Z,5.40
2019-02-18T01:59:26.800Z,5.63
2019-02-18T02:01:56.376Z,5.17
2019-02-18T02:04:25.939Z,5.10
2019-02-18T02:06:55.523Z,6.70
2019-02-18T02:09:25.437Z,5.50
2019-02-18T02:11:55.008Z,8.23
2019-02-18T02:14:24.568Z,5.27
2019-02-18T02:16:54.337Z,5.23
2019-02-18T02:19:23.924Z,6.10
2019-02-18T02:21:53.538Z,5.20
2019-02-18T02:24:22.969Z,5.03
2019-02-18T02:27:11.834Z,6.43
2019-02-18T02:30:00.735Z,6.50
2019-02-18T02:32:30.314Z,7.63
2019-02-18T02:34:59.907Z,6.73
2019-02-18T02:37:48.792Z,7.50
2019-02-18T02:40:18.349Z,5.30
2019-02-18T02:42:48.088Z,5.07
2019-02-18T02:45:17.673Z,8.30
2019-02-18T02:47:47.316Z,7.33
2019-02-18T02:50:16.867Z,6.77
2019-02-18T02:52:46.483Z,6.83
2019-02-18T02:55:16.061Z,7.07
2019-02-18T02:57:45.711Z,6.63
2019-02-18T03:00:16.663Z,7.00
2019-02-18T03:03:05.499Z,6.20
2019-02-18T03:05:35.112Z,7.57
2019-02-18T03:08:04.718Z,5.37
2019-02-18T03:10:34.284Z,5.90
2019-02-18T03:13:04.363Z,8.00
2019-02-18T03:15:34.690Z,6.13
2019-02-18T03:18:05.729Z,6.43
2019-02-18T03:20:35.348Z,7.73
2019-02-18T03:23:04.920Z,5.47
2019-02-18T03:25:34.586Z,6.47
2019-02-18T03:28:08.628Z,6.27
2019-02-18T03:33:19.745Z,6.47
2019-02-18T03:35:49.320Z,7.20
2019-02-18T03:38:18.909Z,6.87
2019-02-18T03:40:48.552Z,7.97
2019-02-18T03:43:18.348Z,5.77
2019-02-18T03:45:47.939Z,6.10
2019-02-18T03:48:20.374Z,7.87
2019-02-18T03:50:50.509Z,7.23
2019-02-18T03:53:20.065Z,7.87
2019-02-18T03:55:49.994Z,9.13
2019-02-18T03:58:19.756Z,6.60
2019-02-18T04:00:49.804Z,10.07
2019-02-18T04:03:20.018Z,7.13
2019-02-18T04:05:49.611Z,7.50
2019-02-18T04:08:19.173Z,7.37
2019-02-18T04:10:48.789Z,7.00
2019-02-18T04:13:18.404Z,6.47
2019-02-18T04:15:48.926Z,6.20
2019-02-18T04:18:18.530Z,5.73
2019-02-18T04:20:48.113Z,6.47
2019-02-18T04:23:17.699Z,5.77
2019-02-18T04:25:47.379Z,6.97
2019-02-18T04:28:16.964Z,9.07
2019-02-18T04:30:46.530Z,6.33
2019-02-18T04:33:16.154Z,6.27
2019-02-18T04:35:45.737Z,9.50
2019-02-18T04:38:15.326Z,7.97
2019-02-18T04:40:44.927Z,6.80
2019-02-18T04:43:14.505Z,8.70
2019-02-18T04:45:44.085Z,6.07
2019-02-18T04:48:14.124Z,6.53
2019-02-18T04:51:02.994Z,7.63
2019-02-18T04:53:32.557Z,7.40
2019-02-18T04:56:02.121Z,7.53
2019-02-18T04:58:31.721Z,6.07
2019-02-18T05:01:02.978Z,8.10
2019-02-18T05:03:32.729Z,8.17
2019-02-18T05:06:05.111Z,7.63
2019-02-18T05:08:35.150Z,8.27
2019-02-18T05:11:04.798Z,9.37
2019-02-18T05:13:34.361Z,7.73
2019-02-18T05:16:05.346Z,8.47
2019-02-18T05:18:34.907Z,8.27
2019-02-18T05:21:04.498Z,9.77
2019-02-18T05:23:34.184Z,11.50
2019-02-18T05:26:03.739Z,10.73
2019-02-18T05:28:33.317Z,7.07
2019-02-18T05:31:03.042Z,8.63
2019-02-18T05:33:32.553Z,8.33
2019-02-18T05:36:07.820Z,6.57
2019-02-18T05:38:37.576Z,5.90
2019-02-18T05:41:07.231Z,7.10
2019-02-18T05:43:36.809Z,9.60
2019-02-18T05:46:08.649Z,6.83
2019-02-18T05:48:37.773Z,7.27
2019-02-18T05:51:07.363Z,9.40
2019-02-18T05:53:36.975Z,7.27
2019-02-18T05:56:06.605Z,9.67
2019-02-18T05:58:36.216Z,10.90
2019-02-18T06:01:05.836Z,9.33
2019-02-18T06:03:35.405Z,8.97
2019-02-18T06:06:05.099Z,8.47
2019-02-18T06:08:34.669Z,7.10
2019-02-18T06:11:04.241Z,9.00
2019-02-18T06:13:33.955Z,7.70
2019-02-18T06:16:03.745Z,8.07
2019-02-18T06:18:33.299Z,7.90
2019-02-18T06:21:02.960Z,8.83
2019-02-18T06:23:32.621Z,8.30
2019-02-18T06:26:02.177Z,8.77
2019-02-18T06:28:31.839Z,10.17
2019-02-18T06:31:01.480Z,8.70
2019-02-18T06:33:32.638Z,8.47
2019-02-18T06:36:02.240Z,12.27
2019-02-18T06:38:31.839Z,9.47
2019-02-18T06:41:01.439Z,9.53
2019-02-18T06:43:31.044Z,8.80
2019-02-18T06:46:02.261Z,9.50
2019-02-18T06:48:33.738Z,12.43
2019-02-18T06:51:03.370Z,9.27
2019-02-18T06:53:33.067Z,13.07
2019-02-18T06:56:02.638Z,10.53
2019-02-18T06:58:33.828Z,10.43
2019-02-18T07:01:05.405Z,13.77
2019-02-18T07:03:36.550Z,9.73
2019-02-18T07:06:07.705Z,12.73
2019-02-18T07:08:38.917Z,8.60
2019-02-18T07:11:10.089Z,8.17
2019-02-18T07:13:39.704Z,11.83
2019-02-18T07:16:09.356Z,9.47
2019-02-18T07:18:38.945Z,7.80
2019-02-18T07:21:08.509Z,7.93
2019-02-18T07:23:38.099Z,9.30
2019-02-18T07:26:07.729Z,7.33
2019-02-18T07:28:37.317Z,6.80
2019-02-18T07:31:06.942Z,7.70
2019-02-18T07:33:36.523Z,8.40
2019-02-18T07:36:06.207Z,8.30
2019-02-18T07:38:35.864Z,9.93
2019-02-18T07:41:05.556Z,7.55
2019-02-18T07:43:35.178Z,7.80
2019-02-18T07:46:04.929Z,6.62
2019-02-18T07:48:36.708Z,9.35
2019-02-18T07:51:05.803Z,7.35
2019-02-18T07:53:35.411Z,8.55
2019-02-18T07:56:04.973Z,8.18
2019-02-18T07:58:34.575Z,8.15
2019-02-18T08:01:04.411Z,10.82
2019-02-18T08:03:34.013Z,10.30
2019-02-18T08:06:03.612Z,10.68
2019-02-18T08:08:33.232Z,11.53
2019-02-18T08:11:02.831Z,10.30
2019-02-18T08:13:32.727Z,9.23
2019-02-18T08:16:02.444Z,9.60
2019-02-18T08:18:32.125Z,8.38
2019-02-18T08:21:01.730Z,10.50
2019-02-18T08:23:31.336Z,9.13
2019-02-18T08:26:00.945Z,9.00
2019-02-18T08:28:30.500Z,8.98
2019-02-18T08:31:00.115Z,8.75
2019-02-18T08:33:29.704Z,9.25
2019-02-18T08:35:59.315Z,10.13
2019-02-18T08:38:28.978Z,8.60
2019-02-18T08:40:58.551Z,12.33
2019-02-18T08:43:28.128Z,11.28
2019-02-18T08:45:57.720Z,14.07
2019-02-18T08:48:27.312Z,11.50
2019-02-18T08:50:56.982Z,9.28
2019-02-18T08:53:26.578Z,10.88
2019-02-18T08:55:56.149Z,10.60
2019-02-18T08:58:25.716Z,9.68
2019-02-18T09:01:02.228Z,11.70
2019-02-18T09:03:32.759Z,11.80
2019-02-18T09:06:02.369Z,8.38
2019-02-18T09:08:31.975Z,8.15
2019-02-18T09:11:01.555Z,7.87
2019-02-18T09:13:31.491Z,7.03
2019-02-18T09:16:01.079Z,6.22
2019-02-18T09:18:30.809Z,5.95
2019-02-18T09:21:00.439Z,5.53
2019-02-18T09:23:31.607Z,5.95
2019-02-18T09:26:01.376Z,5.50
2019-02-18T09:28:30.962Z,4.87
2019-02-18T09:31:00.673Z,7.72
2019-02-18T09:33:30.244Z,4.47
2019-02-18T09:35:59.848Z,7.55
2019-02-18T09:38:29.425Z,5.05
2019-02-18T09:40:59.022Z,4.55
2019-02-18T09:43:28.648Z,5.58
2019-02-18T09:45:58.241Z,5.20
2019-02-18T09:48:27.879Z,5.70
2019-02-18T09:50:59.929Z,7.25
2019-02-18T09:53:28.844Z,6.08
2019-02-18T09:55:58.442Z,5.65
2019-02-18T09:58:28.074Z,5.05
2019-02-18T10:00:57.631Z,5.67
2019-02-18T10:03:32.421Z,5.62
2019-02-18T10:06:02.126Z,6.08
2019-02-18T10:08:32.157Z,6.58
2019-02-18T10:11:01.725Z,4.10
2019-02-18T10:13:31.406Z,6.30
2019-02-18T10:16:01.022Z,5.22
2019-02-18T10:18:30.485Z,5.92
2019-02-18T10:21:01.277Z,5.95
2019-02-18T10:23:30.863Z,5.58
2019-02-18T10:26:00.566Z,5.30
2019-02-18T10:28:30.338Z,5.92
2019-02-18T10:30:59.893Z,5.47
2019-02-18T10:33:29.521Z,6.03
2019-02-18T10:35:59.142Z,5.75
2019-02-18T10:38:28.712Z,5.45
2019-02-18T10:41:06.613Z,7.08
2019-02-18T10:43:32.402Z,4.28
2019-02-18T10:46:01.183Z,4.12
2019-02-18T10:48:30.754Z,6.42
2019-02-18T10:51:00.351Z,7.00
2019-02-18T10:53:29.938Z,4.55
2019-02-18T10:55:59.503Z,5.20
2019-02-18T10:58:29.135Z,6.90
2019-02-18T11:00:58.863Z,6.12
2019-02-18T11:03:28.455Z,6.00
2019-02-18T11:05:58.034Z,5.40
2019-02-18T11:08:27.604Z,5.42
2019-02-18T11:10:57.182Z,10.15
2019-02-18T11:13:26.799Z,6.22
2019-02-18T11:15:56.406Z,4.47
2019-02-18T11:18:26.021Z,9.35
2019-02-18T11:20:55.818Z,5.58
2019-02-18T11:23:25.861Z,6.67
2019-02-18T11:25:55.444Z,6.03
2019-02-18T11:28:25.042Z,5.67
2019-02-18T11:30:54.649Z,5.60
2019-02-18T11:33:24.241Z,5.58
2019-02-18T11:35:53.879Z,5.15
2019-02-18T11:38:23.616Z,5.65
2019-02-18T11:40:53.323Z,6.33
2019-02-18T11:43:22.910Z,5.92
2019-02-18T11:45:52.517Z,6.65
2019-02-18T11:48:22.102Z,5.97
2019-02-18T11:50:52.158Z,6.30
2019-02-18T11:53:21.737Z,6.35
2019-02-18T11:55:51.335Z,6.17
2019-02-18T11:58:20.937Z,7.30
2019-02-18T12:00:50.573Z,5.65
2019-02-18T12:03:20.137Z,6.75
2019-02-18T12:05:49.925Z,7.08
2019-02-18T12:08:19.497Z,6.28
2019-02-18T12:10:49.099Z,6.90
2019-02-18T12:13:18.697Z,5.60
2019-02-18T12:15:48.296Z,5.70
2019-02-18T12:18:17.879Z,6.83
2019-02-18T12:20:48.137Z,7.15
2019-02-18T12:23:17.718Z,7.95
2019-02-18T12:25:47.288Z,6.87
2019-02-18T12:28:16.869Z,5.90
2019-02-18T12:30:47.695Z,6.08
2019-02-18T12:33:17.300Z,5.83
2019-02-18T12:35:47.221Z,6.25
2019-02-18T12:38:17.483Z,5.90
2019-02-18T12:40:47.344Z,6.03
2019-02-18T12:43:16.946Z,6.55
2019-02-18T12:45:46.544Z,6.30
2019-02-18T12:48:16.206Z,6.30
2019-02-18T12:50:45.810Z,7.20
2019-02-18T12:53:15.502Z,6.15
2019-02-18T12:55:45.110Z,6.85
2019-02-18T12:58:14.704Z,7.42
2019-02-18T13:00:44.306Z,5.30
2019-02-18T13:03:13.977Z,6.60
2019-02-18T13:05:44.088Z,5.62
2019-02-18T13:08:32.958Z,4.15
2019-02-18T13:11:02.572Z,6.40
2019-02-18T13:13:32.158Z,5.20
2019-02-18T13:16:01.918Z,5.28
2019-02-18T13:18:31.991Z,5.83
2019-02-18T13:21:01.557Z,4.33
2019-02-18T13:23:31.154Z,4.58
2019-02-18T13:26:00.798Z,5.25
2019-02-18T13:28:30.615Z,5.10
2019-02-18T13:31:00.183Z,4.47
2019-02-18T13:33:29.765Z,5.20
2019-02-18T13:35:59.352Z,4.67
2019-02-18T13:38:28.938Z,5.58
2019-02-18T13:40:58.515Z,6.03
2019-02-18T13:43:28.106Z,4.65
2019-02-18T13:45:57.763Z,5.58
2019-02-18T13:48:27.756Z,6.12
2019-02-18T13:50:57.342Z,4.35
2019-02-18T13:53:26.921Z,4.35
2019-02-18T13:55:56.508Z,5.85
2019-02-18T13:58:26.088Z,4.08
2019-02-18T14:00:55.727Z,4.83
2019-02-18T14:03:25.714Z,7.25
2019-02-18T14:05:55.268Z,3.50
2019-02-18T14:08:24.865Z,6.20
2019-02-18T14:10:54.718Z,5.08
2019-02-18T14:13:24.373Z,5.25
2019-02-18T14:15:54.032Z,4.40
2019-02-18T14:18:23.922Z,4.78
2019-02-18T14:20:53.484Z,3.75
2019-02-18T14:23:23.086Z,4.05
2019-02-18T14:25:52.668Z,4.78
2019-02-18T14:28:22.233Z,4.90
2019-02-18T14:30:51.830Z,5.33
2019-02-18T14:33:21.719Z,4.20
2019-02-18T14:35:51.304Z,4.08
2019-02-18T14:38:20.868Z,4.95
2019-02-18T14:40:50.448Z,3.70
2019-02-18T14:43:20.048Z,4.85
2019-02-18T14:45:49.700Z,3.98
2019-02-18T14:48:19.205Z,5.05
2019-02-18T14:50:56.539Z,4.85
2019-02-18T14:53:20.349Z,3.27
2019-02-18T14:55:49.974Z,3.25
2019-02-18T14:58:21.939Z,4.28
2019-02-18T15:00:51.772Z,5.28
2019-02-18T15:03:21.565Z,6.00
2019-02-18T15:05:51.230Z,4.85
2019-02-18T15:08:20.781Z,3.00
2019-02-18T15:10:50.377Z,5.22
2019-02-18T15:13:19.978Z,3.42
2019-02-18T15:15:49.426Z,3.85
2019-02-18T15:18:18.998Z,3.65
2019-02-18T15:20:48.624Z,8.53
2019-02-18T15:23:18.199Z,5.58
2019-02-18T15:25:48.161Z,5.47
2019-02-18T15:28:17.829Z,5.20
2019-02-18T15:30:47.447Z,3.80
2019-02-18T15:33:17.117Z,4.80
2019-02-18T15:35:46.779Z,3.47
2019-02-18T15:38:16.427Z,6.53
2019-02-18T15:40:46.029Z,3.95
2019-02-18T15:43:15.971Z,3.92
2019-02-18T15:45:45.574Z,4.70
2019-02-18T15:48:15.366Z,3.65
2019-02-18T15:50:44.920Z,3.70
2019-02-18T15:53:14.538Z,3.58
2019-02-18T15:55:44.656Z,3.80
2019-02-18T15:58:14.637Z,5.65
2019-02-18T16:00:44.222Z,5.78
2019-02-18T16:03:13.830Z,5.12
2019-02-18T16:05:43.412Z,3.20
2019-02-18T16:08:12.967Z,3.87
2019-02-18T16:10:42.577Z,3.87
2019-02-18T16:13:12.211Z,4.25
2019-02-18T16:15:41.778Z,3.52
2019-02-18T16:18:11.395Z,4.92
2019-02-18T16:20:42.353Z,3.12
2019-02-18T16:23:12.083Z,4.22
2019-02-18T16:25:44.647Z,4.22
2019-02-18T16:28:14.230Z,5.15
2019-02-18T16:30:43.859Z,4.15
2019-02-18T16:33:13.475Z,3.92
2019-02-18T16:35:43.392Z,5.42
2019-02-18T16:38:12.994Z,2.77
2019-02-18T16:40:42.601Z,3.22
2019-02-18T16:43:12.183Z,4.00
2019-02-18T16:45:41.779Z,5.00
2019-02-18T16:48:11.755Z,4.03
2019-02-18T16:50:41.340Z,3.75
2019-02-18T16:53:10.923Z,4.95
2019-02-18T16:55:40.556Z,4.03
2019-02-18T16:58:10.143Z,3.98
2019-02-18T17:00:39.767Z,3.95
2019-02-18T17:03:09.715Z,4.60
2019-02-18T17:05:39.298Z,5.23
2019-02-18T17:08:08.913Z,5.33
2019-02-18T17:10:38.460Z,4.33
2019-02-18T17:13:08.603Z,4.00
2019-02-18T17:15:38.405Z,3.77
2019-02-18T17:18:08.053Z,3.20
2019-02-18T17:20:37.595Z,2.93
2019-02-18T17:23:07.188Z,3.10
2019-02-18T17:25:36.795Z,3.67
2019-02-18T17:28:06.345Z,4.00
2019-02-18T17:30:35.915Z,3.27
2019-02-18T17:33:05.676Z,4.17
2019-02-18T17:35:35.327Z,4.30
2019-02-18T17:38:05.160Z,4.47
2019-02-18T17:40:34.770Z,3.53
2019-02-18T17:43:04.499Z,4.13
2019-02-18T17:45:34.148Z,4.00
2019-02-18T17:48:03.760Z,6.20
2019-02-18T17:50:33.392Z,4.30
2019-02-18T17:53:03.332Z,3.80
2019-02-18T17:55:33.030Z,3.80
2019-02-18T17:58:02.615Z,3.90
2019-02-18T18:00:33.721Z,5.13
2019-02-18T18:03:03.797Z,5.17
2019-02-18T18:05:33.398Z,5.47
2019-02-18T18:08:03.696Z,5.50
2019-02-18T18:10:33.315Z,3.40
2019-02-18T18:13:02.906Z,2.53
2019-02-18T18:15:32.460Z,2.73
2019-02-18T18:18:02.035Z,5.17
2019-02-18T18:20:31.603Z,3.47
2019-02-18T18:23:01.173Z,3.50
2019-02-18T18:25:30.819Z,5.03
2019-02-18T18:28:00.408Z,3.77
2019-02-18T18:30:29.969Z,2.90
2019-02-18T18:32:59.573Z,3.13
2019-02-18T18:35:29.691Z,3.50
2019-02-18T18:37:59.249Z,2.13
2019-02-18T18:40:29.196Z,3.03
2019-02-18T18:42:58.772Z,3.27
2019-02-18T18:45:28.349Z,2.87
2019-02-18T18:47:57.968Z,2.83
2019-02-18T18:50:27.988Z,4.17
2019-02-18T18:52:57.560Z,4.53
2019-02-18T18:55:27.171Z,2.83
2019-02-18T18:57:56.728Z,2.80
2019-02-18T19:00:26.915Z,3.03
2019-02-18T19:02:56.537Z,2.47
2019-02-18T19:05:26.106Z,3.97
2019-02-18T19:07:55.690Z,2.67
2019-02-18T19:10:25.258Z,3.73
2019-02-18T19:12:54.809Z,3.63
2019-02-18T19:15:24.393Z,2.77
2019-02-18T19:17:54.452Z,2.63
2019-02-18T19:20:23.994Z,3.63
2019-02-18T19:22:53.571Z,3.27
2019-02-18T19:25:23.436Z,3.43
2019-02-18T19:27:53.013Z,3.20
2019-02-18T19:30:27.076Z,2.80
2019-02-18T19:32:56.658Z,5.27
2019-02-18T19:35:26.242Z,2.33
2019-02-18T19:37:55.799Z,3.60
2019-02-18T19:40:25.393Z,2.10
2019-02-18T19:42:54.807Z,2.90
2019-02-18T19:45:25.775Z,5.77
2019-02-18T19:47:55.380Z,3.07
2019-02-18T19:50:24.922Z,4.00
2019-02-18T19:52:54.471Z,4.73
2019-02-18T19:55:25.439Z,2.77
2019-02-18T19:57:55.105Z,2.63
2019-02-18T20:00:24.731Z,4.43
2019-02-18T20:02:54.768Z,4.83
2019-02-18T20:05:24.346Z,3.63
2019-02-18T20:07:53.920Z,2.97
2019-02-18T20:10:23.555Z,2.70
2019-02-18T20:12:53.482Z,3.00
2019-02-18T20:15:23.035Z,3.83
2019-02-18T20:17:52.630Z,4.10
2019-02-18T20:20:25.167Z,4.40
2019-02-18T20:22:54.719Z,5.87
2019-02-18T20:25:24.351Z,3.37
2019-02-18T20:27:53.927Z,4.50
2019-02-18T20:30:23.500Z,5.43
2019-02-18T20:32:53.091Z,5.67
2019-02-18T20:35:22.676Z,3.67
2019-02-18T20:37:52.224Z,3.60
2019-02-18T20:40:22.303Z,3.33
2019-02-18T20:42:51.846Z,5.53
2019-02-18T20:45:21.406Z,7.10
2019-02-18T20:47:52.092Z,5.10
2019-02-18T20:50:21.644Z,3.87
2019-02-18T20:52:51.199Z,5.10
2019-02-18T20:55:21.071Z,3.43
2019-02-18T20:57:50.648Z,2.50
2019-02-18T21:00:20.872Z,4.47
2019-02-18T21:02:50.611Z,3.73
2019-02-18T21:05:20.191Z,2.93
2019-02-18T21:07:49.757Z,3.70
2019-02-18T21:10:21.561Z,5.47
2019-02-18T21:12:51.220Z,3.77
2019-02-18T21:15:20.797Z,4.27
2019-02-18T21:17:50.491Z,4.23
2019-02-18T21:20:20.053Z,5.07
2019-02-18T21:22:49.974Z,4.67
2019-02-18T21:25:19.566Z,2.97
2019-02-18T21:27:49.145Z,2.97
2019-02-18T21:30:19.455Z,4.70
2019-02-18T21:32:49.076Z,4.33
2019-02-18T21:35:18.630Z,3.63
2019-02-18T21:37:48.177Z,4.33
2019-02-18T21:40:17.789Z,6.87
2019-02-18T21:42:47.380Z,3.73
2019-02-18T21:45:17.464Z,4.43
2019-02-18T21:47:47.040Z,5.10
2019-02-18T21:50:19.391Z,5.97
2019-02-18T21:52:49.085Z,8.17
2019-02-18T21:55:19.791Z,6.87
2019-02-18T21:57:49.364Z,7.97
2019-02-18T22:00:23.189Z,5.17
2019-02-18T22:02:52.797Z,5.23
2019-02-18T22:05:22.411Z,7.70
2019-02-18T22:07:51.996Z,5.83
2019-02-18T22:10:21.634Z,5.37
2019-02-18T22:12:51.212Z,6.40
2019-02-18T22:15:20.783Z,9.13
2019-02-18T22:17:50.386Z,7.13
2019-02-18T22:20:20.870Z,5.47
2019-02-18T22:22:50.605Z,7.07
2019-02-18T22:25:20.171Z,7.50
2019-02-18T22:27:49.721Z,6.07
2019-02-18T22:30:19.284Z,5.63
2019-02-18T22:32:48.893Z,4.93
2019-02-18T22:35:18.721Z,4.97
2019-02-18T22:37:49.772Z,5.57
2019-02-18T22:40:19.393Z,7.43
2019-02-18T22:42:48.948Z,5.07
2019-02-18T22:45:18.529Z,6.00
2019-02-18T22:47:48.088Z,6.27
2019-02-18T22:50:18.027Z,5.67
2019-02-18T22:52:47.584Z,5.00
2019-02-18T22:55:17.207Z,6.33
2019-02-18T22:57:46.776Z,5.60
2019-02-18T23:00:22.082Z,5.30
2019-02-18T23:02:51.930Z,5.17
2019-02-18T23:05:29.347Z,6.27
2019-02-18T23:07:58.891Z,5.87
2019-02-18T23:10:28.471Z,7.77
2019-02-18T23:12:58.042Z,7.03
2019-02-18T23:15:27.624Z,6.63
2019-02-18T23:17:57.575Z,6.33
2019-02-18T23:20:27.136Z,6.57
2019-02-18T23:22:56.717Z,6.87
2019-02-18T23:25:29.235Z,4.43
2019-02-18T23:28:00.310Z,8.60
2019-02-18T23:30:29.892Z,7.03
2019-02-18T23:32:59.467Z,7.50
2019-02-18T23:35:29.057Z,6.07
2019-02-18T23:37:58.631Z,7.13
2019-02-18T23:40:28.214Z,8.80
2019-02-18T23:42:57.775Z,5.73
2019-02-18T23:45:27.327Z,5.80
2019-02-18T23:47:56.896Z,6.13
2019-02-18T23:50:26.495Z,5.80
2019-02-18T23:52:56.069Z,5.33
2019-02-18T23:55:25.626Z,6.70
2019-02-18T23:57:55.207Z,5.47
